Time;durP1;ratioP1;P1;durP2;ratioP2;P2;SDS_P1;SDS_P2;PMS_P1;PMS_P2;Temp;Humidity;BMP_temperature;BMP_pressure;BME280_temperature;BME280_humidity;BME280_pressure;Samples;Min_cycle;Max_cycle;Signal;HPM_P1;HPM_P2
2023/07/09 00:01:55;;;;;;;9.82;3.65;;;;;;;19.78;69.18;97575.06;5070098;28;20605;-56
2023/07/09 00:04:22;;;;;;;7.72;3.50;;;;;;;19.76;69.38;97578.91;5070112;28;20074;-56
2023/07/09 00:06:49;;;;;;;7.65;2.88;;;;;;;19.79;69.16;97576.69;5068443;28;20067;-57
2023/07/09 00:09:19;;;;;;;5.78;2.80;;;;;;;19.70;69.62;97574.66;5070839;28;20032;-56
2023/07/09 00:11:46;;;;;;;7.30;3.30;;;;;;;19.56;70.45;97577.41;5068344;28;20641;-56
2023/07/09 00:14:15;;;;;;;7.43;3.00;;;;;;;19.45;70.92;97581.47;5071432;28;20068;-57
2023/07/09 00:16:44;;;;;;;6.68;3.40;;;;;;;19.45;70.95;97578.75;5068177;28;20079;-58
2023/07/09 00:19:20;;;;;;;7.70;3.17;;;;;;;19.43;71.31;97586.47;5063420;28;20117;-56
2023/07/09 00:21:49;;;;;;;6.63;3.17;;;;;;;19.39;71.28;97588.22;5075185;28;20094;-56
2023/07/09 00:24:15;;;;;;;8.38;2.97;;;;;;;19.44;71.34;97590.84;5066268;28;20051;-56
2023/07/09 00:26:42;;;;;;;7.82;3.03;;;;;;;19.38;71.45;97597.56;5076748;28;20048;-57
2023/07/09 00:29:10;;;;;;;10.02;4.10;;;;;;;19.36;71.82;97592.38;5072600;28;20051;-57
2023/07/09 00:31:40;;;;;;;6.88;3.05;;;;;;;19.30;72.16;97591.66;5069434;28;20533;-54
2023/07/09 00:34:11;;;;;;;7.18;3.28;;;;;;;19.20;72.54;97594.63;5070719;28;20122;-53
2023/07/09 00:36:39;;;;;;;5.85;2.92;;;;;;;19.26;72.20;97593.38;5071589;28;20045;-56
2023/07/09 00:39:15;;;;;;;5.53;3.00;;;;;;;19.23;72.28;97597.56;5072356;28;20048;-57
2023/07/09 00:41:42;;;;;;;6.85;3.13;;;;;;;19.17;72.71;97593.25;5062227;28;20079;-53
2023/07/09 00:44:21;;;;;;;7.05;3.33;;;;;;;19.15;72.81;97601.00;5061630;28;20052;-56
2023/07/09 00:46:47;;;;;;;8.00;3.45;;;;;;;19.12;73.25;97593.38;5062613;28;20522;-52
2023/07/09 00:49:26;;;;;;;6.07;3.05;;;;;;;19.18;73.00;97591.34;5072144;28;20028;-54
2023/07/09 00:51:54;;;;;;;7.65;3.45;;;;;;;19.24;72.74;97596.44;5067188;28;20131;-52
2023/07/09 00:54:30;;;;;;;6.05;3.10;;;;;;;19.21;72.81;97594.28;5070243;28;20044;-54
2023/07/09 00:57:01;;;;;;;10.05;3.60;;;;;;;19.29;72.51;97600.19;5073902;28;20048;-54
2023/07/09 00:59:31;;;;;;;5.65;3.08;;;;;;;19.28;72.26;97596.66;5068530;28;20045;-54
2023/07/09 01:02:00;;;;;;;7.25;3.72;;;;;;;19.23;72.83;97594.81;5067470;28;20518;-55
2023/07/09 01:04:28;;;;;;;6.63;3.65;;;;;;;19.11;73.54;97591.75;5069601;28;20036;-56
2023/07/09 01:06:56;;;;;;;7.55;3.90;;;;;;;19.05;74.03;97595.69;5069956;28;20036;-54
2023/07/09 01:09:24;;;;;;;8.40;3.70;;;;;;;19.00;74.19;97596.56;5066954;28;20037;-54
2023/07/09 01:11:56;;;;;;;7.40;3.85;;;;;;;18.89;74.85;97598.69;5065232;28;20047;-54
2023/07/09 01:14:24;;;;;;;;;;;;;;;18.90;74.67;97597.56;5068328;28;20064;-55
2023/07/09 01:17:00;;;;;;;5.82;3.17;;;;;;;19.00;74.09;97593.84;5073643;28;19920;-54
2023/07/09 01:19:30;;;;;;;8.35;3.60;;;;;;;19.12;73.64;97604.34;5066691;28;20043;-56
2023/07/09 01:21:59;;;;;;;5.88;3.10;;;;;;;18.97;74.38;97595.25;5065957;28;20036;-56
2023/07/09 01:25:01;;;;;;;6.38;3.42;;;;;;;18.85;74.96;97594.91;5067172;28;20036;-56
2023/07/09 01:27:30;;;;;;;7.10;3.55;;;;;;;19.09;73.60;97600.28;5068917;28;20139;-54
2023/07/09 01:29:59;;;;;;;6.85;3.53;;;;;;;19.21;72.75;97601.72;5067797;28;20036;-58
2023/07/09 01:32:25;;;;;;;7.63;3.20;;;;;;;19.28;72.48;97604.06;5067531;28;20041;-55
2023/07/09 01:34:55;;;;;;;14.63;4.20;;;;;;;19.29;72.62;97598.28;5062136;28;20048;-54
2023/07/09 01:37:25;;;;;;;6.90;3.60;;;;;;;19.30;72.36;97613.63;5067953;28;20033;-55
2023/07/09 01:39:53;;;;;;;5.57;3.20;;;;;;;19.36;71.97;97611.59;5061539;28;20655;-55
2023/07/09 01:42:22;;;;;;;7.65;3.78;;;;;;;19.39;71.82;97604.69;5068638;28;20047;-56
2023/07/09 01:44:50;;;;;;;7.55;3.25;;;;;;;19.34;71.69;97603.66;5064009;28;20639;-56
2023/07/09 01:47:17;;;;;;;9.73;3.47;;;;;;;19.35;71.87;97607.22;5075231;28;20047;-54
2023/07/09 01:49:47;;;;;;;5.80;3.05;;;;;;;19.41;71.76;97605.19;5065474;28;20079;-56
2023/07/09 01:52:18;;;;;;;5.78;3.50;;;;;;;19.40;71.62;97601.63;5067084;28;20036;-57
2023/07/09 01:54:49;;;;;;;6.05;3.50;;;;;;;19.41;71.44;97596.94;5061053;28;20098;-55
2023/07/09 01:57:24;;;;;;;6.77;3.10;;;;;;;19.34;71.93;97598.16;5070370;28;20048;-55
2023/07/09 01:59:52;;;;;;;8.10;3.38;;;;;;;19.33;72.12;97599.28;5067023;28;20270;-55
2023/07/09 02:02:19;;;;;;;7.03;3.85;;;;;;;19.33;71.99;97603.97;5069426;28;20447;-56
2023/07/09 02:04:51;;;;;;;7.00;3.25;;;;;;;19.25;72.14;97602.75;5073962;28;20043;-57
2023/07/09 02:07:19;;;;;;;10.13;4.10;;;;;;;19.23;72.50;97602.22;5067148;28;20040;-53
2023/07/09 02:09:46;;;;;;;7.05;3.92;;;;;;;19.21;72.67;97608.00;5069301;28;20067;-56
2023/07/09 02:12:15;;;;;;;8.18;3.63;;;;;;;19.22;72.56;97606.09;5074848;28;20043;-55
2023/07/09 02:14:43;;;;;;;6.90;3.42;;;;;;;19.19;72.54;97610.25;5074192;28;20418;-57
2023/07/09 02:17:12;;;;;;;7.35;3.33;;;;;;;19.13;72.98;97603.25;5068452;28;20044;-56
2023/07/09 02:19:38;;;;;;;7.35;3.72;;;;;;;19.13;72.69;97606.00;5070503;28;20255;-53
2023/07/09 02:22:07;;;;;;;7.75;3.78;;;;;;;19.04;73.62;97603.09;5064530;28;20725;-56
2023/07/09 02:24:33;;;;;;;5.55;3.05;;;;;;;18.94;74.53;97597.78;5064513;28;20041;-52
2023/07/09 02:27:03;;;;;;;6.00;3.65;;;;;;;18.92;74.63;97603.59;5074116;28;20045;-55
2023/07/09 02:29:31;;;;;;;8.27;2.92;;;;;;;18.84;75.02;97605.06;5074392;28;20459;-53
2023/07/09 02:31:59;;;;;;;5.93;3.42;;;;;;;18.67;76.17;97605.63;5070302;28;20040;-54
2023/07/09 02:34:26;;;;;;;6.82;3.13;;;;;;;18.54;76.73;97606.41;5068718;28;20032;-55
2023/07/09 02:36:55;;;;;;;7.18;3.80;;;;;;;18.66;76.12;97611.41;5065495;28;20501;-56
2023/07/09 02:39:22;;;;;;;5.53;3.30;;;;;;;18.60;76.28;97596.97;5071840;28;20033;-57
2023/07/09 02:41:49;;;;;;;6.22;3.50;;;;;;;18.49;76.98;97604.56;5067290;28;20040;-54
2023/07/09 02:44:17;;;;;;;6.13;3.25;;;;;;;18.36;77.62;97606.13;5072693;28;20113;-54
2023/07/09 02:46:44;;;;;;;7.45;3.70;;;;;;;18.30;78.06;97607.31;5068831;28;20048;-58
2023/07/09 02:49:13;;;;;;;7.47;3.40;;;;;;;18.34;77.94;97608.34;5071717;28;20049;-55
2023/07/09 02:51:40;;;;;;;8.00;3.83;;;;;;;18.30;78.20;97610.03;5071581;28;20052;-55
2023/07/09 02:54:07;;;;;;;7.15;3.67;;;;;;;18.27;78.35;97607.91;5074348;28;20456;-55
2023/07/09 02:56:34;;;;;;;7.90;3.65;;;;;;;18.29;78.49;97612.00;5070341;28;20043;-55
2023/07/09 02:59:00;;;;;;;6.55;3.78;;;;;;;18.38;77.91;97617.59;5071666;28;20497;-53
2023/07/09 03:01:27;;;;;;;8.90;3.70;;;;;;;18.49;77.51;97620.19;5063904;28;20127;-55
2023/07/09 03:03:55;;;;;;;7.38;3.33;;;;;;;18.50;77.15;97617.13;5068212;28;20044;-55
2023/07/09 03:06:23;;;;;;;8.70;3.80;;;;;;;18.63;76.63;97618.31;5071514;28;20132;-57
2023/07/09 03:08:51;;;;;;;6.28;3.20;;;;;;;18.63;76.64;97626.53;5071500;28;20045;-56
2023/07/09 03:11:19;;;;;;;6.32;3.45;;;;;;;18.65;76.25;97626.25;5072670;28;20125;-55
2023/07/09 03:13:47;;;;;;;7.18;3.67;;;;;;;18.55;76.92;97627.22;5066058;28;20097;-55
2023/07/09 03:16:15;;;;;;;7.55;3.40;;;;;;;18.36;77.91;97627.25;5073214;28;20123;-56
2023/07/09 03:18:42;;;;;;;6.28;3.20;;;;;;;18.36;77.94;97629.97;5069054;28;20102;-57
2023/07/09 03:21:08;;;;;;;5.78;3.70;;;;;;;18.41;77.82;97624.41;5062043;28;20045;-54
2023/07/09 03:23:35;;;;;;;6.40;4.13;;;;;;;18.34;77.78;97630.28;5076475;28;20105;-54
2023/07/09 03:26:03;;;;;;;8.00;3.40;;;;;;;18.42;77.94;97631.50;5077960;28;20052;-54
2023/07/09 03:28:31;;;;;;;6.30;3.22;;;;;;;18.52;77.32;97627.81;5072287;28;20040;-55
2023/07/09 03:30:58;;;;;;;6.72;3.70;;;;;;;18.46;77.63;97632.56;5075202;28;20032;-56
2023/07/09 03:33:25;;;;;;;7.35;4.43;;;;;;;18.49;77.48;97637.44;5067764;28;20047;-58
2023/07/09 03:35:52;;;;;;;8.48;3.20;;;;;;;18.51;77.23;97635.25;5066320;28;20614;-57
2023/07/09 03:38:19;;;;;;;6.93;3.55;;;;;;;18.48;77.54;97629.50;5072124;28;20049;-55
2023/07/09 03:40:45;;;;;;;6.65;3.60;;;;;;;18.44;77.46;97632.06;5068998;28;20028;-55
2023/07/09 03:43:12;;;;;;;6.53;3.58;;;;;;;18.36;78.18;97635.47;5062950;28;20048;-55
2023/07/09 03:45:38;;;;;;;7.43;3.20;;;;;;;18.39;77.81;97637.63;5064971;28;20044;-54
2023/07/09 03:48:05;;;;;;;7.13;3.95;;;;;;;18.33;78.32;97642.34;5070510;28;20127;-54
2023/07/09 03:50:32;;;;;;;5.72;3.35;;;;;;;18.40;78.12;97639.25;5074206;28;20124;-57
2023/07/09 03:53:00;;;;;;;6.28;3.72;;;;;;;18.36;78.22;97639.03;5071345;28;20093;-57
2023/07/09 03:55:26;;;;;;;5.30;3.63;;;;;;;18.37;78.21;97637.91;5064184;28;20051;-54
2023/07/09 03:57:54;;;;;;;7.38;3.70;;;;;;;18.50;77.50;97644.56;5065323;28;20154;-57
2023/07/09 04:00:21;;;;;;;7.38;4.03;;;;;;;18.45;77.73;97642.72;5065065;28;20041;-57
2023/07/09 04:02:47;;;;;;;6.65;3.80;;;;;;;18.27;78.71;97647.09;5067684;28;20470;-55
2023/07/09 04:05:15;;;;;;;6.07;3.25;;;;;;;18.16;79.45;97640.94;5069018;28;20132;-56
2023/07/09 04:07:41;;;;;;;7.50;3.97;;;;;;;18.21;79.48;97642.81;5073073;28;20426;-54
2023/07/09 04:10:08;;;;;;;8.23;4.38;;;;;;;18.16;79.87;97645.59;5069292;28;20047;-57
2023/07/09 04:12:36;;;;;;;7.43;4.03;;;;;;;18.15;79.75;97647.53;5062071;28;20036;-56
2023/07/09 04:15:04;;;;;;;6.30;3.65;;;;;;;18.16;79.98;97640.94;5072730;28;20051;-53
2023/07/09 04:17:30;;;;;;;6.53;3.92;;;;;;;18.24;79.79;97641.41;5069134;28;20050;-56
2023/07/09 04:19:57;;;;;;;7.13;4.10;;;;;;;18.32;79.22;97644.28;5069897;28;20044;-56
2023/07/09 04:22:24;;;;;;;5.60;3.85;;;;;;;18.31;79.38;97650.88;5066236;28;20466;-54
2023/07/09 04:24:52;;;;;;;7.57;3.75;;;;;;;18.34;79.49;97657.69;5065280;28;20036;-51
2023/07/09 04:27:19;;;;;;;9.48;3.97;;;;;;;18.37;79.27;97651.63;5065918;28;20119;-51
2023/07/09 04:29:45;;;;;;;6.72;4.18;;;;;;;18.38;79.50;97649.66;5075891;28;20044;-57
2023/07/09 04:32:14;;;;;;;7.53;3.40;;;;;;;18.51;78.69;97648.94;5065447;28;20048;-55
2023/07/09 04:34:41;;;;;;;6.65;3.88;;;;;;;18.66;77.95;97653.38;5067211;28;20048;-52
2023/07/09 04:37:10;;;;;;;5.45;3.38;;;;;;;18.88;77.07;97654.69;5066004;28;20041;-55
2023/07/09 04:39:36;;;;;;;7.53;4.20;;;;;;;18.72;78.03;97657.66;5069497;28;20066;-55
2023/07/09 04:42:03;;;;;;;7.63;3.47;;;;;;;18.87;77.19;97661.25;5062125;28;20044;-57
2023/07/09 04:44:30;;;;;;;6.85;3.55;;;;;;;19.00;76.50;97656.13;5067039;28;20067;-57
2023/07/09 04:46:57;;;;;;;6.57;3.70;;;;;;;19.07;76.71;97654.66;5061904;28;20052;-54
2023/07/09 04:49:24;;;;;;;6.93;4.22;;;;;;;19.09;76.84;97655.16;5065208;28;20114;-56
2023/07/09 04:51:50;;;;;;;6.45;3.88;;;;;;;19.16;76.26;97654.75;5063684;28;20101;-53
2023/07/09 04:54:17;;;;;;;7.32;3.72;;;;;;;19.22;76.53;97664.56;5064494;28;20041;-54
2023/07/09 04:56:44;;;;;;;7.57;3.80;;;;;;;19.43;75.60;97657.88;5067652;28;20126;-55
2023/07/09 04:59:12;;;;;;;5.90;3.60;;;;;;;19.50;75.26;97670.06;5063802;28;20052;-53
2023/07/09 05:01:38;;;;;;;5.53;3.42;;;;;;;19.73;74.60;97674.88;5065301;28;20043;-54
2023/07/09 05:04:05;;;;;;;8.15;3.67;;;;;;;19.77;74.08;97673.16;5069509;28;20067;-50
2023/07/09 05:06:33;;;;;;;11.80;3.83;;;;;;;19.75;74.59;97672.63;5065266;28;20041;-56
2023/07/09 05:08:59;;;;;;;8.18;3.97;;;;;;;19.85;74.53;97675.19;5066556;28;20044;-53
2023/07/09 05:11:26;;;;;;;8.27;3.78;;;;;;;19.88;74.39;97671.84;5067302;28;20800;-57
2023/07/09 05:13:53;;;;;;;8.73;4.32;;;;;;;19.95;73.92;97673.34;5066654;28;20042;-49
2023/07/09 05:16:20;;;;;;;7.18;3.78;;;;;;;20.03;74.13;97678.16;5073062;28;20543;-54
2023/07/09 05:18:47;;;;;;;6.22;3.85;;;;;;;20.11;74.20;97682.09;5069738;28;20059;-54
2023/07/09 05:21:13;;;;;;;7.22;3.47;;;;;;;20.13;74.30;97677.91;5061084;28;20044;-50
2023/07/09 05:23:40;;;;;;;7.07;3.50;;;;;;;20.06;75.14;97677.53;5066982;28;20052;-58
2023/07/09 05:26:06;;;;;;;6.30;3.30;;;;;;;20.11;74.66;97676.59;5068382;28;20418;-59
2023/07/09 05:28:33;;;;;;;7.20;3.85;;;;;;;20.19;74.67;97680.59;5069007;28;20550;-60
2023/07/09 05:30:59;;;;;;;6.95;3.55;;;;;;;20.32;74.13;97682.50;5068972;28;20045;-60
2023/07/09 05:33:26;;;;;;;8.90;3.38;;;;;;;20.46;73.09;97685.22;5065760;28;20041;-58
2023/07/09 05:35:53;;;;;;;6.45;3.60;;;;;;;20.60;72.38;97681.59;5068230;28;20047;-60
2023/07/09 05:38:19;;;;;;;8.23;3.30;;;;;;;20.80;71.79;97677.56;5072805;28;20537;-60
2023/07/09 05:40:46;;;;;;;7.28;4.05;;;;;;;20.95;71.36;97686.56;5065343;28;20065;-58
2023/07/09 05:43:12;;;;;;;6.82;3.90;;;;;;;21.09;70.27;97686.50;5065476;28;20037;-59
2023/07/09 05:45:39;;;;;;;7.18;3.70;;;;;;;21.25;69.16;97682.25;5069749;28;20055;-59
2023/07/09 05:48:06;;;;;;;7.78;3.60;;;;;;;21.36;68.36;97682.78;5070503;28;20046;-60
2023/07/09 05:50:34;;;;;;;6.70;3.55;;;;;;;21.47;68.19;97677.00;5067790;28;20680;-58
2023/07/09 05:53:01;;;;;;;7.97;3.70;;;;;;;21.56;68.27;97678.66;5068120;28;20090;-59
2023/07/09 05:55:27;;;;;;;9.30;3.97;;;;;;;21.64;67.85;97676.28;5069333;28;20486;-59
2023/07/09 05:57:54;;;;;;;9.82;4.57;;;;;;;21.77;67.14;97675.38;5065814;28;20530;-60
2023/07/09 06:00:21;;;;;;;11.77;4.13;;;;;;;21.91;66.60;97686.31;5067543;28;20036;-59
2023/07/09 06:02:47;;;;;;;7.90;3.40;;;;;;;22.13;65.81;97687.34;5081163;28;20051;-60
2023/07/09 06:05:14;;;;;;;5.28;3.10;;;;;;;22.30;65.16;97681.03;5065417;28;20044;-60
2023/07/09 06:07:41;;;;;;;7.82;3.65;;;;;;;22.47;64.11;97688.53;5071684;28;20610;-59
2023/07/09 06:10:09;;;;;;;10.55;3.53;;;;;;;22.67;63.73;97689.03;5073224;28;20058;-60
2023/07/09 06:12:36;;;;;;;8.15;3.90;;;;;;;22.83;63.00;97696.84;5073784;28;20578;-60
2023/07/09 06:15:03;;;;;;;8.60;4.20;;;;;;;22.94;62.59;97689.03;5073588;28;20044;-60
2023/07/09 06:17:29;;;;;;;8.85;3.90;;;;;;;23.10;62.02;97695.69;5074324;28;20455;-60
2023/07/09 06:19:56;;;;;;;9.95;4.22;;;;;;;23.27;61.50;97691.25;5069510;28;20049;-60
2023/07/09 06:22:25;;;;;;;7.78;3.30;;;;;;;23.40;60.78;97697.75;5066032;28;20040;-61
2023/07/09 06:24:51;;;;;;;8.63;4.38;;;;;;;23.61;59.72;97691.50;5069881;28;20044;-60
2023/07/09 06:27:18;;;;;;;5.15;3.10;;;;;;;23.78;58.93;97693.41;5078411;28;20044;-60
2023/07/09 06:29:45;;;;;;;7.78;3.50;;;;;;;23.93;58.54;97693.97;5078711;28;20051;-60
2023/07/09 06:32:11;;;;;;;11.30;4.00;;;;;;;24.08;58.26;97693.41;5067093;28;20036;-60
2023/07/09 06:34:37;;;;;;;7.85;3.38;;;;;;;24.21;58.21;97696.31;5071448;28;20040;-57
2023/07/09 06:37:04;;;;;;;6.90;3.60;;;;;;;24.31;57.12;97692.31;5072218;28;20419;-60
2023/07/09 06:39:31;;;;;;;7.40;3.50;;;;;;;24.45;56.81;97695.66;5068632;28;20050;-60
2023/07/09 06:41:58;;;;;;;9.02;3.75;;;;;;;24.57;55.92;97694.13;5076648;28;20115;-60
2023/07/09 06:44:34;;;;;;;6.75;3.13;;;;;;;24.70;55.46;97701.34;5072017;28;20051;-59
2023/07/09 06:47:00;;;;;;;10.65;3.75;;;;;;;24.87;54.15;97697.63;5069924;28;20454;-60
2023/07/09 06:49:27;;;;;;;9.35;3.50;;;;;;;25.05;53.05;97703.00;5071703;28;20037;-60
2023/07/09 06:51:54;;;;;;;8.88;3.60;;;;;;;25.16;53.55;97700.63;5072073;28;20496;-60
2023/07/09 06:54:20;;;;;;;7.03;2.90;;;;;;;25.26;52.53;97693.84;5072272;28;20502;-60
2023/07/09 06:56:47;;;;;;;8.30;3.40;;;;;;;25.46;52.53;97698.53;5075241;28;20037;-59
2023/07/09 06:59:13;;;;;;;9.68;3.40;;;;;;;25.57;50.54;97693.38;5071257;28;20036;-60
2023/07/09 07:01:40;;;;;;;6.00;3.00;;;;;;;25.67;50.22;97700.44;5073018;28;20531;-59
2023/07/09 07:04:06;;;;;;;6.05;2.78;;;;;;;25.84;50.32;97693.88;5072295;28;20059;-61
2023/07/09 07:06:33;;;;;;;10.35;3.13;;;;;;;25.91;49.14;97693.28;5074987;28;20055;-59
2023/07/09 07:09:00;;;;;;;5.32;2.80;;;;;;;25.93;49.59;97698.50;5075279;28;20036;-60
2023/07/09 07:11:29;;;;;;;6.80;3.00;;;;;;;26.10;48.60;97700.22;5070406;28;20082;-60
2023/07/09 07:13:57;;;;;;;5.45;2.97;;;;;;;26.22;48.17;97691.91;5067062;28;20119;-59
2023/07/09 07:16:24;;;;;;;8.07;3.00;;;;;;;26.31;46.49;97691.78;5076747;28;20051;-60
2023/07/09 07:18:51;;;;;;;6.15;3.15;;;;;;;26.34;47.45;97691.09;5065440;28;20058;-60
2023/07/09 07:21:17;;;;;;;7.30;3.65;;;;;;;26.38;47.18;97693.19;5072616;28;20043;-60
2023/07/09 07:23:44;;;;;;;5.80;3.00;;;;;;;26.48;46.97;97690.75;5073795;28;20123;-59
2023/07/09 07:26:11;;;;;;;8.23;3.17;;;;;;;26.51;46.30;97689.22;5069467;28;20054;-60
2023/07/09 07:28:37;;;;;;;6.65;3.13;;;;;;;26.59;46.71;97693.00;5073168;28;20040;-59
2023/07/09 07:31:07;;;;;;;5.78;2.90;;;;;;;26.69;45.30;97691.72;5068362;28;20036;-58
2023/07/09 07:33:35;;;;;;;7.78;3.22;;;;;;;26.74;45.97;97691.47;5067603;28;20067;-59
2023/07/09 07:36:05;;;;;;;5.28;2.60;;;;;;;26.68;46.06;97690.91;5066734;28;20111;-60
2023/07/09 07:38:51;;;;;;;8.18;3.25;;;;;;;26.83;46.33;97681.00;5071789;28;20053;-58
2023/07/09 07:41:18;;;;;;;7.57;2.85;;;;;;;27.03;45.85;97691.50;5074542;28;20047;-58
2023/07/09 07:43:44;;;;;;;4.95;2.95;;;;;;;27.19;45.04;97688.78;5073038;28;20067;-59
2023/07/09 07:46:11;;;;;;;6.50;2.72;;;;;;;27.46;43.75;97691.88;5071379;28;20090;-59
2023/07/09 07:48:37;;;;;;;8.98;3.25;;;;;;;27.53;43.40;97681.72;5070504;28;20130;-60
2023/07/09 07:51:04;;;;;;;6.78;2.85;;;;;;;27.75;43.71;97687.88;5069511;28;20086;-60
2023/07/09 07:53:31;;;;;;;5.82;2.92;;;;;;;27.72;42.66;97683.03;5072214;28;20043;-59
2023/07/09 07:55:58;;;;;;;7.05;3.42;;;;;;;27.64;42.83;97684.03;5074297;28;20044;-60
2023/07/09 07:58:25;;;;;;;5.70;3.08;;;;;;;27.67;43.34;97674.94;5069133;28;20643;-59
2023/07/09 08:00:56;;;;;;;7.20;3.00;;;;;;;27.86;42.59;97670.66;5072389;28;20044;-59
2023/07/09 08:03:23;;;;;;;5.47;2.60;;;;;;;27.79;42.57;97672.06;5076745;28;20075;-59
2023/07/09 08:05:50;;;;;;;5.40;2.65;;;;;;;27.87;42.25;97677.81;5073033;28;20089;-60
2023/07/09 08:08:17;;;;;;;5.68;2.90;;;;;;;27.96;42.52;97684.00;5064770;28;20485;-59
2023/07/09 08:10:44;;;;;;;6.88;3.15;;;;;;;28.04;40.99;97688.56;5072990;28;20048;-60
2023/07/09 08:13:10;;;;;;;5.85;2.78;;;;;;;28.03;40.54;97681.41;5063598;28;20439;-60
2023/07/09 08:15:37;;;;;;;6.00;2.97;;;;;;;28.08;40.60;97680.28;5074980;28;20036;-60
2023/07/09 08:18:04;;;;;;;5.40;2.40;;;;;;;28.14;39.38;97680.81;5070070;28;20143;-60
2023/07/09 08:20:32;;;;;;;8.32;2.80;;;;;;;28.26;40.25;97679.97;5067842;28;20512;-60
2023/07/09 08:22:59;;;;;;;6.20;2.80;;;;;;;28.28;39.07;97678.41;5073724;28;20753;-60
2023/07/09 08:25:26;;;;;;;6.53;2.95;;;;;;;28.22;39.75;97673.47;5070724;28;20044;-59
2023/07/09 08:27:53;;;;;;;5.07;2.45;;;;;;;28.20;39.96;97678.56;5072679;28;20035;-60
2023/07/09 08:30:19;;;;;;;6.65;2.88;;;;;;;28.24;39.80;97673.91;5068652;28;20077;-60
2023/07/09 08:32:46;;;;;;;5.78;2.80;;;;;;;28.45;39.77;97672.81;5070177;28;20051;-60
2023/07/09 08:35:12;;;;;;;6.47;3.20;;;;;;;28.36;39.80;97665.47;5069453;28;20032;-59
2023/07/09 08:37:59;;;;;;;9.77;3.78;;;;;;;28.33;39.90;97670.97;5068431;28;20036;-60
2023/07/09 08:40:26;;;;;;;7.38;2.78;;;;;;;28.44;39.90;97671.97;5070899;28;20048;-59
2023/07/09 08:43:00;;;;;;;7.93;3.55;;;;;;;28.38;39.51;97665.09;5069520;28;20037;-59
2023/07/09 08:45:56;;;;;;;6.05;2.95;;;;;;;28.52;40.05;97675.75;5068453;28;20105;-59
2023/07/09 08:48:30;;;;;;;5.97;2.90;;;;;;;28.54;40.21;97671.44;5073538;28;20128;-59
2023/07/09 08:51:09;;;;;;;5.85;2.90;;;;;;;28.52;39.77;97667.41;5063521;28;20503;-59
2023/07/09 08:53:41;;;;;;;7.25;3.13;;;;;;;28.62;40.36;97675.16;5066668;28;20044;-59
2023/07/09 08:56:09;;;;;;;5.70;3.03;;;;;;;28.90;39.70;97678.94;5081897;28;20028;-60
2023/07/09 08:58:38;;;;;;;7.20;3.00;;;;;;;28.90;40.14;97681.72;5078045;28;20036;-59
2023/07/09 09:01:13;;;;;;;5.68;3.22;;;;;;;29.05;40.36;97674.44;5067098;28;20028;-60
2023/07/09 09:03:52;;;;;;;5.22;2.67;;;;;;;29.18;40.06;97675.06;5074831;28;20052;-59
2023/07/09 09:06:25;;;;;;;5.15;2.80;;;;;;;29.26;39.19;97670.47;5065011;28;20124;-60
2023/07/09 09:09:18;;;;;;;5.47;2.65;;;;;;;29.34;39.27;97672.22;5076055;28;21765;-60
2023/07/09 09:11:53;;;;;;;5.93;2.88;;;;;;;29.31;39.06;97672.94;5063856;28;20079;-60
2023/07/09 09:14:28;;;;;;;5.82;3.00;;;;;;;29.39;39.22;97677.47;5064485;28;20100;-59
2023/07/09 09:16:56;;;;;;;4.63;2.50;;;;;;;29.49;38.67;97681.63;5073765;28;20040;-60
2023/07/09 09:19:29;;;;;;;4.88;2.88;;;;;;;29.48;39.27;97680.00;5064090;28;20119;-60
2023/07/09 09:22:05;;;;;;;5.00;2.50;;;;;;;29.57;38.87;97680.63;5067508;28;20036;-60
2023/07/09 09:24:40;;;;;;;7.28;3.00;;;;;;;29.80;37.53;97674.22;5073280;28;20037;-59
2023/07/09 09:27:08;;;;;;;4.90;3.00;;;;;;;29.88;37.33;97683.50;5069473;28;20055;-58
2023/07/09 09:29:35;;;;;;;6.47;2.88;;;;;;;29.75;37.09;97674.53;5068070;28;20044;-60
2023/07/09 09:32:21;;;;;;;5.43;2.53;;;;;;;29.64;37.26;97670.75;5074779;28;20032;-59
2023/07/09 09:34:48;;;;;;;6.18;2.88;;;;;;;29.71;37.25;97674.44;5071836;28;20047;-60
2023/07/09 09:37:23;;;;;;;4.47;2.50;;;;;;;29.72;38.02;97672.47;5071373;28;20115;-59
2023/07/09 09:39:50;;;;;;;6.70;2.92;;;;;;;29.81;36.79;97669.44;5067155;28;20036;-60
2023/07/09 09:42:36;;;;;;;7.05;3.25;;;;;;;30.10;36.31;97669.88;5070836;28;20660;-58
2023/07/09 09:45:13;;;;;;;7.55;2.88;;;;;;;30.19;35.57;97670.47;5070439;28;20043;-59
2023/07/09 09:47:39;;;;;;;5.47;3.03;;;;;;;30.22;35.08;97666.09;5066446;28;20036;-59
2023/07/09 09:50:09;;;;;;;6.75;2.90;;;;;;;30.21;36.37;97673.66;5062991;28;20683;-59
2023/07/09 09:52:37;;;;;;;5.22;2.53;;;;;;;30.32;35.55;97679.41;5067186;28;20040;-59
2023/07/09 09:55:17;;;;;;;6.45;3.13;;;;;;;30.45;35.40;97662.44;5066419;28;20147;-57
2023/07/09 09:57:52;;;;;;;5.85;2.85;;;;;;;30.61;35.03;97662.22;5066767;28;20563;-61
2023/07/09 10:00:23;;;;;;;5.57;2.50;;;;;;;30.63;33.88;97665.47;5064009;28;20047;-59
2023/07/09 10:02:49;;;;;;;;;;;;;;;30.60;30.22;97655.03;5065509;28;20507;-58
2023/07/09 10:05:21;;;;;;;6.40;2.72;;;;;;;30.60;29.50;97658.66;5072016;28;20007;-58
2023/07/09 10:08:05;;;;;;;4.32;2.28;;;;;;;30.68;30.17;97653.13;5075012;28;20037;-60
2023/07/09 10:10:33;;;;;;;6.70;2.90;;;;;;;30.78;28.75;97655.28;5063500;28;20105;-59
2023/07/09 10:13:35;;;;;;;6.13;2.53;;;;;;;30.75;30.09;97648.47;5058621;28;20047;-59
2023/07/09 10:16:15;;;;;;;6.18;2.58;;;;;;;30.73;30.93;97641.66;5064032;28;20089;-58
2023/07/09 10:18:53;;;;;;;7.82;3.15;;;;;;;31.10;29.13;97648.47;5067553;28;20044;-60
2023/07/09 10:22:08;;;;;;;5.75;3.10;;;;;;;31.58;28.98;97642.13;5056294;28;20551;-59
2023/07/09 10:24:50;;;;;;;8.80;2.67;;;;;;;31.40;27.43;97647.59;5053853;28;20053;-60
2023/07/09 10:27:25;;;;;;;6.20;2.92;;;;;;;31.41;28.98;97643.59;5059351;28;20101;-60
2023/07/09 10:30:24;;;;;;;7.10;2.60;;;;;;;31.44;28.74;97637.25;5063132;28;20044;-60
2023/07/09 10:33:13;;;;;;;6.82;2.65;;;;;;;31.35;29.32;97628.34;5063418;28;20516;-61
2023/07/09 10:36:06;;;;;;;6.93;3.42;;;;;;;31.49;29.67;97630.47;5072342;28;20595;-59
2023/07/09 10:38:51;;;;;;;5.50;2.80;;;;;;;31.42;29.96;97634.00;5068470;28;20044;-60
2023/07/09 10:41:19;;;;;;;4.57;2.40;;;;;;;31.46;30.67;97629.25;5074263;28;20119;-59
2023/07/09 10:44:00;;;;;;;5.93;2.75;;;;;;;31.79;29.13;97626.72;5064025;28;20806;-59
2023/07/09 10:46:33;;;;;;;7.88;3.42;;;;;;;32.19;28.68;97624.19;5065636;28;20571;-60
2023/07/09 10:49:05;;;;;;;8.60;2.90;;;;;;;32.15;27.36;97617.78;5068656;28;20040;-59
2023/07/09 10:51:40;;;;;;;8.63;3.35;;;;;;;32.11;27.63;97620.56;5068780;28;20654;-60
2023/07/09 10:54:12;;;;;;;6.95;3.20;;;;;;;32.24;28.62;97629.44;5072187;28;20062;-60
2023/07/09 10:56:39;;;;;;;5.50;2.70;;;;;;;32.01;28.31;97618.47;5063154;28;20068;-60
2023/07/09 10:59:26;;;;;;;4.93;2.60;;;;;;;31.94;27.90;97621.25;5072003;28;20510;-60
2023/07/09 11:02:06;;;;;;;8.82;3.33;;;;;;;31.84;29.35;97615.16;5071842;28;20120;-59
2023/07/09 11:04:49;;;;;;;7.43;3.30;;;;;;;31.71;29.56;97608.25;5075158;28;20050;-59
2023/07/09 11:07:22;;;;;;;5.65;3.03;;;;;;;31.79;29.96;97599.53;5067125;28;20082;-60
2023/07/09 11:09:54;;;;;;;5.32;2.85;;;;;;;31.91;30.26;97590.03;5066462;28;20048;-60
2023/07/09 11:12:33;;;;;;;8.75;3.08;;;;;;;32.33;31.53;97591.84;5065338;28;20036;-59
2023/07/09 11:15:10;;;;;;;5.45;2.65;;;;;;;32.73;30.83;97604.06;5066922;28;20040;-59
2023/07/09 11:17:40;;;;;;;6.55;3.60;;;;;;;32.92;28.14;97611.34;5069994;28;20037;-61
2023/07/09 11:20:15;;;;;;;;;;;;;;;32.91;28.05;97614.53;5066655;28;20063;-60
2023/07/09 11:22:50;;;;;;;7.13;2.90;;;;;;;32.66;27.72;97602.06;5065565;28;20339;-60
2023/07/09 11:25:46;;;;;;;5.97;2.83;;;;;;;32.74;28.18;97596.44;5061753;28;20398;-61
2023/07/09 11:28:13;;;;;;;6.90;3.47;;;;;;;32.59;27.77;97596.41;5063716;28;20764;-62
2023/07/09 11:30:50;;;;;;;5.72;3.03;;;;;;;32.63;27.79;97590.81;5070368;28;20672;-62
2023/07/09 11:33:27;;;;;;;6.97;3.22;;;;;;;32.50;27.74;97590.38;5064061;28;20036;-61
2023/07/09 11:36:10;;;;;;;6.72;2.80;;;;;;;32.45;28.24;97583.13;5064644;28;20123;-62
2023/07/09 11:38:42;;;;;;;6.63;3.03;;;;;;;32.60;29.40;97591.63;5072790;28;20043;-62
2023/07/09 11:41:41;;;;;;;8.25;3.03;;;;;;;32.71;28.84;97592.44;5066923;28;20079;-64
2023/07/09 11:44:20;;;;;;;6.43;3.28;;;;;;;33.05;27.54;97583.72;5070137;28;20040;-61
2023/07/09 11:47:17;;;;;;;6.43;2.85;;;;;;;33.48;25.79;97588.59;5071480;28;20051;-62
2023/07/09 11:49:51;;;;;;;6.40;2.70;;;;;;;33.56;26.30;97575.38;5065136;28;20482;-63